Time;durP1;ratioP1;P1;durP2;ratioP2;P2;SDS_P1;SDS_P2;PMS_P1;PMS_P2;Temp;Humidity;BMP_temperature;BMP_pressure;BME280_temperature;BME280_humidity;BME280_pressure;Samples;Min_cycle;Max_cycle;Signal;HPM_P1;HPM_P2
2023/05/29 00:02:24;;;;;;;8.90;5.38;;;;;;;15.41;76.50;101230.44;5038864;28;20080;-79
2023/05/29 00:04:51;;;;;;;14.27;5.97;;;;;;;15.31;76.66;101228.00;5041655;28;20468;-78
2023/05/29 00:07:19;;;;;;;10.63;6.30;;;;;;;15.17;76.94;101232.19;5040354;28;20057;-80
2023/05/29 00:09:46;;;;;;;8.00;5.30;;;;;;;15.10;77.20;101235.69;5043701;28;20072;-78
2023/05/29 00:12:13;;;;;;;11.68;5.70;;;;;;;15.05;77.17;101235.38;5046814;28;20080;-78
2023/05/29 00:14:40;;;;;;;14.32;5.75;;;;;;;15.01;77.30;101236.72;5044939;28;20091;-78
2023/05/29 00:17:12;;;;;;;9.23;5.30;;;;;;;14.99;77.18;101234.25;5048002;28;20060;-78
2023/05/29 00:19:40;;;;;;;10.43;5.28;;;;;;;14.90;77.05;101233.44;5044203;28;20045;-77
2023/05/29 00:22:07;;;;;;;8.00;5.05;;;;;;;14.86;76.95;101240.06;5040482;28;20093;-78
2023/05/29 00:24:33;;;;;;;11.27;5.47;;;;;;;14.86;76.77;101229.50;5039243;28;20060;-77
2023/05/29 00:27:01;;;;;;;7.93;5.40;;;;;;;14.85;76.72;101227.03;5039716;28;20099;-77
2023/05/29 00:29:27;;;;;;;8.65;5.63;;;;;;;14.84;76.64;101239.41;5041565;28;20052;-77
2023/05/29 00:31:54;;;;;;;8.85;5.63;;;;;;;14.79;76.57;101239.06;5048777;28;20088;-78
2023/05/29 00:34:22;;;;;;;8.48;5.40;;;;;;;14.77;76.54;101240.22;5048142;28;20080;-78
2023/05/29 00:36:50;;;;;;;10.45;5.95;;;;;;;14.69;76.69;101241.06;5062499;28;20063;-79
2023/05/29 00:39:17;;;;;;;8.95;5.53;;;;;;;14.62;76.94;101242.75;5048157;28;20517;-79
2023/05/29 00:41:43;;;;;;;8.32;5.43;;;;;;;14.55;77.11;101233.88;5043606;28;20041;-81
2023/05/29 00:44:10;;;;;;;9.35;5.57;;;;;;;14.47;77.17;101239.97;5051254;28;20116;-80
2023/05/29 00:46:37;;;;;;;8.95;5.57;;;;;;;14.45;76.97;101247.22;5043601;28;20046;-79
2023/05/29 00:49:06;;;;;;;7.72;5.25;;;;;;;14.39;76.86;101245.22;5040716;28;20053;-79
2023/05/29 00:51:33;;;;;;;12.25;5.80;;;;;;;14.32;76.85;101243.41;5043882;28;20049;-81
2023/05/29 00:54:01;;;;;;;10.55;5.32;;;;;;;14.32;76.69;101235.50;5046256;28;20087;-80
2023/05/29 00:56:27;;;;;;;9.15;5.40;;;;;;;14.25;76.63;101236.16;5053897;28;20085;-79
2023/05/29 00:58:54;;;;;;;8.20;5.30;;;;;;;14.29;76.25;101240.09;5044308;28;20085;-81
2023/05/29 01:01:22;;;;;;;8.00;5.25;;;;;;;14.29;76.14;101245.38;5052253;28;20077;-80
2023/05/29 01:03:49;;;;;;;12.35;5.72;;;;;;;14.32;76.08;101246.03;5043457;28;20049;-80
2023/05/29 01:06:16;;;;;;;10.98;5.15;;;;;;;14.22;76.46;101252.28;5050276;28;20088;-79
2023/05/29 01:08:42;;;;;;;11.18;5.75;;;;;;;14.19;76.68;101254.41;5052341;28;20055;-80
2023/05/29 01:11:18;;;;;;;8.85;5.72;;;;;;;14.09;76.72;101244.06;5045152;28;20128;-80
2023/05/29 01:13:46;;;;;;;8.05;5.43;;;;;;;14.01;76.98;101237.97;5050643;28;20081;-81
2023/05/29 01:16:21;;;;;;;10.27;5.13;;;;;;;13.90;77.16;101252.28;5052939;28;20069;-82
2023/05/29 01:18:55;;;;;;;9.32;5.35;;;;;;;13.81;77.42;101242.72;5045954;28;20049;-80
2023/05/29 01:21:38;;;;;;;10.80;5.93;;;;;;;13.76;77.40;101248.47;5043858;28;20049;-79
2023/05/29 01:24:15;;;;;;;8.55;5.22;;;;;;;13.75;77.55;101248.63;5045160;28;20052;-83
2023/05/29 01:26:48;;;;;;;8.90;5.07;;;;;;;13.70;77.67;101254.38;5045898;28;20060;-81
2023/05/29 01:29:16;;;;;;;9.02;5.72;;;;;;;13.69;77.81;101260.63;5039373;28;20049;-81
2023/05/29 01:31:44;;;;;;;10.27;5.35;;;;;;;13.63;77.88;101265.72;5041568;28;20056;-81
2023/05/29 01:34:11;;;;;;;9.90;5.72;;;;;;;13.55;77.92;101259.44;5039517;28;20134;-81
2023/05/29 01:36:38;;;;;;;8.85;5.65;;;;;;;13.48;78.22;101263.69;5044236;28;20429;-82
2023/05/29 01:39:05;;;;;;;9.13;5.75;;;;;;;13.46;78.46;101265.66;5039005;28;20084;-81
2023/05/29 01:41:33;;;;;;;9.27;5.53;;;;;;;13.38;78.70;101281.38;5050076;28;20068;-80
2023/05/29 01:44:04;;;;;;;9.23;5.22;;;;;;;13.31;79.00;101282.16;5045557;28;20058;-79
2023/05/29 01:46:31;;;;;;;8.77;5.18;;;;;;;13.25;78.95;101273.09;5084583;23;20040;-85
2023/05/29 01:48:58;;;;;;;8.93;5.70;;;;;;;13.31;78.98;101282.16;5097937;28;20044;-85
2023/05/29 01:51:24;;;;;;;9.80;5.45;;;;;;;13.25;79.04;101294.13;5097911;28;20488;-86
2023/05/29 01:53:54;;;;;;;9.55;6.07;;;;;;;13.24;79.15;101292.50;5094276;28;20131;-87
2023/05/29 01:56:26;;;;;;;8.70;5.47;;;;;;;13.17;79.26;101302.00;5075494;28;20056;-87
2023/05/29 01:58:53;;;;;;;9.37;5.70;;;;;;;13.15;79.31;101296.06;5076138;28;20513;-87
2023/05/29 02:01:22;;;;;;;10.82;5.40;;;;;;;13.08;79.63;101300.28;5075945;28;20052;-86
2023/05/29 02:03:49;;;;;;;11.85;5.85;;;;;;;13.07;79.82;101301.25;5075448;28;20087;-88
2023/05/29 02:06:15;;;;;;;8.20;5.45;;;;;;;13.00;80.06;101295.78;5075946;28;20552;-86
2023/05/29 02:08:42;;;;;;;9.50;5.80;;;;;;;12.91;80.38;101296.72;5075201;28;20584;-87
2023/05/29 02:11:09;;;;;;;10.75;5.80;;;;;;;12.84;80.78;101312.28;5075185;28;20159;-87
2023/05/29 02:13:35;;;;;;;13.35;5.53;;;;;;;12.79;80.91;101313.72;5074647;28;20090;-87
2023/05/29 02:16:02;;;;;;;9.52;5.68;;;;;;;12.81;80.94;101319.63;5075047;28;20055;-88
2023/05/29 02:18:30;;;;;;;10.38;5.72;;;;;;;12.79;81.17;101325.03;5075984;28;20140;-87
2023/05/29 02:20:57;;;;;;;7.95;5.80;;;;;;;12.69;81.34;101318.25;5075476;28;20087;-88
2023/05/29 02:23:24;;;;;;;6.75;5.22;;;;;;;12.57;81.84;101320.28;5075208;28;20187;-87
2023/05/29 02:25:51;;;;;;;9.68;5.22;;;;;;;12.59;81.99;101323.59;5074547;28;20076;-87
2023/05/29 02:28:17;;;;;;;9.73;5.88;;;;;;;12.56;82.13;101327.34;5074537;28;20054;-87
2023/05/29 02:30:44;;;;;;;10.40;5.45;;;;;;;12.53;82.45;101330.28;5074035;28;20492;-88
2023/05/29 02:33:11;;;;;;;9.35;5.57;;;;;;;12.54;82.93;101331.09;5074153;28;20087;-87
2023/05/29 02:35:39;;;;;;;8.88;5.57;;;;;;;12.49;83.20;101338.59;5075665;28;20132;-88
2023/05/29 02:38:08;;;;;;;11.57;6.18;;;;;;;12.48;83.40;101336.94;5075195;28;20135;-87
2023/05/29 02:40:34;;;;;;;8.02;5.90;;;;;;;12.42;83.57;101337.53;5074820;28;20041;-86
2023/05/29 02:43:01;;;;;;;12.20;5.85;;;;;;;12.37;83.98;101339.78;5074785;28;20048;-87
2023/05/29 02:45:28;;;;;;;11.85;5.72;;;;;;;12.36;84.39;101343.41;5074460;28;20421;-87
2023/05/29 02:47:54;;;;;;;11.68;5.47;;;;;;;12.37;84.61;101342.41;5074526;28;20052;-88
2023/05/29 02:50:21;;;;;;;10.00;5.80;;;;;;;12.29;84.92;101344.00;5074047;28;20048;-87
2023/05/29 02:52:49;;;;;;;12.23;5.75;;;;;;;12.31;85.09;101341.22;5074722;28;20135;-87
2023/05/29 02:55:16;;;;;;;12.18;5.22;;;;;;;12.25;85.00;101331.34;5074071;28;20079;-87
2023/05/29 02:57:43;;;;;;;13.18;6.47;;;;;;;12.17;85.56;101339.97;5070408;28;20057;-87
2023/05/29 03:00:12;;;;;;;12.25;5.50;;;;;;;12.16;85.70;101338.31;5062174;28;20139;-86
2023/05/29 03:02:39;;;;;;;11.85;5.85;;;;;;;12.13;86.05;101335.97;5074160;28;20096;-86
2023/05/29 03:05:07;;;;;;;11.43;5.25;;;;;;;12.06;86.32;101342.78;5074283;28;20053;-86
2023/05/29 03:07:34;;;;;;;12.30;5.68;;;;;;;12.03;86.31;101337.84;5074888;28;20056;-87
2023/05/29 03:10:03;;;;;;;8.27;5.30;;;;;;;12.00;86.51;101340.75;5074241;28;20079;-87
2023/05/29 03:12:30;;;;;;;15.80;5.78;;;;;;;11.93;86.89;101337.91;5074318;28;20056;-87
2023/05/29 03:14:57;;;;;;;10.00;5.53;;;;;;;11.86;87.08;101351.75;5073339;28;20049;-87
2023/05/29 03:17:23;;;;;;;9.57;5.40;;;;;;;11.84;87.26;101353.69;5073745;28;20048;-87
2023/05/29 03:19:50;;;;;;;12.43;5.65;;;;;;;11.80;87.53;101347.09;5075409;28;20068;-87
2023/05/29 03:22:17;;;;;;;13.45;5.47;;;;;;;11.67;87.62;101346.59;5074496;28;20497;-87
2023/05/29 03:24:44;;;;;;;12.35;5.32;;;;;;;11.67;87.32;101346.59;5069870;28;20534;-87
2023/05/29 03:27:12;;;;;;;12.25;5.60;;;;;;;11.63;87.45;101346.88;5069853;28;20052;-87
2023/05/29 03:29:38;;;;;;;18.92;5.57;;;;;;;11.69;87.28;101344.66;5072906;28;20048;-86
2023/05/29 03:32:05;;;;;;;13.90;5.97;;;;;;;11.60;86.96;101344.53;5074247;28;20470;-86
2023/05/29 03:34:32;;;;;;;15.00;5.55;;;;;;;11.62;87.17;101347.84;5073818;28;20525;-88
2023/05/29 03:36:59;;;;;;;11.32;5.00;;;;;;;11.61;87.09;101351.44;5074044;28;20412;-85
2023/05/29 03:39:25;;;;;;;14.43;5.70;;;;;;;11.58;87.33;101348.28;5073959;28;20094;-87
2023/05/29 03:41:52;;;;;;;12.65;5.40;;;;;;;11.52;86.54;101349.69;5074284;28;20084;-87
2023/05/29 03:44:20;;;;;;;18.17;5.53;;;;;;;11.57;87.05;101355.31;5076129;28;20045;-87
2023/05/29 03:46:47;;;;;;;12.07;4.93;;;;;;;11.65;86.65;101354.59;5078250;28;20083;-87
2023/05/29 03:49:13;;;;;;;15.98;5.38;;;;;;;11.54;86.16;101347.75;5077408;28;20123;-86
2023/05/29 03:51:40;;;;;;;21.20;5.68;;;;;;;11.55;85.96;101352.00;5077840;28;20155;-87
2023/05/29 03:54:06;;;;;;;15.20;5.32;;;;;;;11.61;85.75;101353.22;5077471;28;20049;-87
2023/05/29 03:56:35;;;;;;;15.90;6.20;;;;;;;11.64;85.68;101345.91;5077388;28;20151;-86
2023/05/29 03:59:01;;;;;;;12.73;5.30;;;;;;;11.83;85.49;101358.09;5077231;28;20112;-87
2023/05/29 04:01:29;;;;;;;14.88;5.82;;;;;;;11.97;84.74;101359.41;5069147;28;20160;-86
2023/05/29 04:03:56;;;;;;;20.48;6.20;;;;;;;12.23;83.79;101357.72;5076931;28;20040;-87
2023/05/29 04:06:23;;;;;;;13.55;5.45;;;;;;;12.45;82.99;101369.56;5076982;28;20132;-87
2023/05/29 04:08:49;;;;;;;16.33;5.45;;;;;;;12.26;82.65;101349.56;5077436;28;20052;-87
2023/05/29 04:11:16;;;;;;;15.38;5.65;;;;;;;12.73;81.92;101357.19;5077082;28;20048;-87
2023/05/29 04:13:43;;;;;;;16.02;5.55;;;;;;;12.95;80.90;101359.31;5076807;28;20051;-87
2023/05/29 04:16:09;;;;;;;13.75;5.13;;;;;;;13.02;80.42;101366.56;5077661;28;20110;-86
2023/05/29 04:18:37;;;;;;;12.63;4.88;;;;;;;12.85;80.41;101366.44;5078064;28;20112;-87
2023/05/29 04:21:04;;;;;;;13.30;4.90;;;;;;;12.87;80.61;101363.66;5078020;28;20083;-87
2023/05/29 04:23:31;;;;;;;14.20;5.22;;;;;;;13.02;80.42;101369.19;5068877;28;20101;-87
2023/05/29 04:25:58;;;;;;;10.25;5.03;;;;;;;13.26;79.45;101359.69;5069068;28;20063;-87
2023/05/29 04:28:24;;;;;;;13.25;5.30;;;;;;;13.78;77.95;101374.56;5077183;28;20127;-85
2023/05/29 04:30:51;;;;;;;15.20;4.93;;;;;;;13.71;77.27;101370.91;5064612;28;20182;-85
2023/05/29 04:33:20;;;;;;;10.48;4.93;;;;;;;13.35;77.94;101371.06;5077802;28;20090;-86
2023/05/29 04:35:49;;;;;;;15.63;4.90;;;;;;;13.18;78.82;101377.22;5058486;28;20048;-86
2023/05/29 04:38:16;;;;;;;14.93;5.22;;;;;;;13.15;79.41;101393.28;5066907;28;20059;-86
2023/05/29 04:40:43;;;;;;;14.50;4.63;;;;;;;13.23;79.50;101401.25;5074805;28;20552;-85
2023/05/29 04:43:10;;;;;;;14.85;5.75;;;;;;;13.46;78.60;101396.28;5073854;28;20556;-86
2023/05/29 04:45:37;;;;;;;14.50;5.18;;;;;;;14.07;77.38;101398.69;5075829;28;20048;-85
2023/05/29 04:48:04;;;;;;;13.45;4.75;;;;;;;13.90;76.51;101399.59;5078964;28;20063;-85
2023/05/29 04:50:32;;;;;;;13.30;4.93;;;;;;;13.59;77.17;101400.13;5068527;28;20053;-87
2023/05/29 04:53:00;;;;;;;12.95;4.90;;;;;;;13.60;77.55;101399.16;5065029;28;20076;-85
2023/05/29 04:55:26;;;;;;;11.68;5.05;;;;;;;13.55;77.62;101397.97;5079763;28;20116;-85
2023/05/29 04:57:53;;;;;;;17.67;5.38;;;;;;;13.74;77.43;101397.72;5072753;28;20456;-86
2023/05/29 05:00:20;;;;;;;17.38;5.25;;;;;;;13.63;76.87;101398.03;5059752;28;20159;-86
2023/05/29 05:02:47;;;;;;;16.00;4.78;;;;;;;13.94;76.92;101395.66;5072190;28;20091;-87
2023/05/29 05:05:13;;;;;;;18.17;5.68;;;;;;;13.93;76.25;101391.38;5078854;28;20052;-87
2023/05/29 05:07:40;;;;;;;13.27;5.43;;;;;;;13.98;76.16;101397.00;5076214;28;20136;-89
2023/05/29 05:10:09;;;;;;;15.48;5.47;;;;;;;13.71;76.32;101386.69;5058362;28;20497;-86
2023/05/29 05:12:36;;;;;;;14.57;5.15;;;;;;;13.54;76.46;101393.69;5056349;28;20055;-87
2023/05/29 05:15:03;;;;;;;15.35;4.95;;;;;;;13.88;76.40;101401.56;5058268;28;20100;-84
2023/05/29 05:17:30;;;;;;;12.10;4.78;;;;;;;14.06;75.07;101397.03;5059925;28;20127;-85
2023/05/29 05:19:56;;;;;;;18.75;5.32;;;;;;;14.48;74.22;101398.78;5059667;28;20096;-84
2023/05/29 05:22:23;;;;;;;14.27;5.30;;;;;;;14.84;72.48;101405.38;5058033;28;20113;-84
2023/05/29 05:24:51;;;;;;;13.73;4.60;;;;;;;15.95;70.74;101408.13;5076764;28;20128;-84
2023/05/29 05:27:20;;;;;;;16.75;5.18;;;;;;;16.78;67.82;101397.72;5078339;28;20094;-84
2023/05/29 05:29:46;;;;;;;16.20;5.22;;;;;;;16.29;66.77;101385.81;5078275;28;20052;-86
2023/05/29 05:32:13;;;;;;;14.15;5.40;;;;;;;16.17;67.52;101383.56;5078689;28;20055;-85
2023/05/29 05:34:39;;;;;;;12.82;5.07;;;;;;;16.12;68.17;101403.56;5078692;28;20353;-85
2023/05/29 05:37:07;;;;;;;17.38;5.22;;;;;;;16.83;66.68;101403.28;5078411;28;20496;-87
2023/05/29 05:39:33;;;;;;;12.35;5.20;;;;;;;17.82;64.67;101398.63;5079085;28;20056;-88
2023/05/29 05:42:01;;;;;;;15.13;4.53;;;;;;;18.16;62.59;101404.13;5079541;28;20039;-88
2023/05/29 05:44:29;;;;;;;13.13;5.43;;;;;;;18.48;61.73;101391.41;5079342;28;20492;-88
2023/05/29 05:46:55;;;;;;;13.73;5.50;;;;;;;17.79;62.31;101391.06;5077151;28;20053;-87
2023/05/29 05:49:22;;;;;;;11.60;4.82;;;;;;;18.00;62.38;101403.53;5078491;28;20147;-89
2023/05/29 05:51:50;;;;;;;13.77;5.20;;;;;;;18.59;61.14;101398.84;5079593;28;20099;-89
2023/05/29 05:54:16;;;;;;;13.02;5.30;;;;;;;18.85;60.42;101395.66;5080219;28;20060;-87
2023/05/29 05:56:43;;;;;;;17.67;5.20;;;;;;;17.86;61.76;101407.84;5077448;28;20480;-86
2023/05/29 05:59:10;;;;;;;11.75;4.82;;;;;;;17.88;62.16;101400.56;5078056;28;20052;-85
2023/05/29 06:01:38;;;;;;;14.25;5.22;;;;;;;18.27;61.88;101394.06;5076267;28;20060;-86
2023/05/29 06:04:05;;;;;;;13.18;5.18;;;;;;;18.01;61.44;101399.88;5076395;28;20063;-86
2023/05/29 06:06:32;;;;;;;14.68;5.25;;;;;;;18.10;61.58;101399.56;5059617;28;20053;-85
2023/05/29 06:08:59;;;;;;;9.90;4.72;;;;;;;18.58;61.00;101391.91;5077871;28;20493;-86
2023/05/29 06:11:26;;;;;;;13.18;5.05;;;;;;;18.18;61.45;101403.94;5077635;28;20127;-85
2023/05/29 06:13:53;;;;;;;12.55;5.38;;;;;;;18.49;60.77;101390.41;5078568;28;20536;-86
2023/05/29 06:16:20;;;;;;;13.23;5.05;;;;;;;18.90;60.29;101398.56;5078539;28;20556;-86
2023/05/29 06:18:48;;;;;;;15.15;4.65;;;;;;;18.64;60.70;101400.97;5078402;28;20080;-86
2023/05/29 06:21:14;;;;;;;12.45;5.13;;;;;;;20.20;58.32;101404.78;5078549;28;20110;-86
2023/05/29 06:23:42;;;;;;;14.18;5.55;;;;;;;20.76;56.51;101403.69;5079091;28;20079;-86
2023/05/29 06:26:09;;;;;;;14.77;5.72;;;;;;;20.52;56.59;101410.41;5078359;28;20064;-87
2023/05/29 06:28:35;;;;;;;16.50;5.60;;;;;;;20.32;56.78;101412.97;5078445;28;20624;-86
2023/05/29 06:31:02;;;;;;;15.55;5.40;;;;;;;20.21;56.84;101411.75;5078715;28;20087;-86
2023/05/29 06:33:29;;;;;;;15.80;5.32;;;;;;;20.46;56.18;101404.03;5077972;28;20092;-87
2023/05/29 06:35:57;;;;;;;12.27;5.05;;;;;;;20.02;56.85;101404.50;5079513;28;20124;-86
2023/05/29 06:38:24;;;;;;;16.48;6.07;;;;;;;19.75;57.52;101400.13;5079612;28;20048;-85
2023/05/29 06:40:51;;;;;;;14.93;4.95;;;;;;;20.13;57.10;101403.94;5072869;28;20052;-87
2023/05/29 06:43:17;;;;;;;14.57;5.30;;;;;;;20.82;56.23;101403.66;5059292;28;20117;-87
2023/05/29 06:45:44;;;;;;;13.00;5.00;;;;;;;21.30;55.41;101405.28;5102536;22;20068;-80
2023/05/29 06:48:11;;;;;;;17.92;5.10;;;;;;;22.18;53.77;101417.91;5083392;28;20112;-80
2023/05/29 06:50:37;;;;;;;12.35;4.57;;;;;;;22.01;53.22;101414.09;5084857;28;20056;-79
2023/05/29 06:53:05;;;;;;;11.32;5.10;;;;;;;21.68;53.19;101414.22;5086483;28;20071;-79
2023/05/29 06:55:32;;;;;;;13.85;5.15;;;;;;;22.11;53.70;101418.97;5086934;28;20150;-79
2023/05/29 06:57:59;;;;;;;13.27;5.75;;;;;;;21.20;53.41;101411.03;5088781;28;20136;-78
2023/05/29 07:00:25;;;;;;;13.60;5.22;;;;;;;21.75;53.97;101419.50;5082619;28;20075;-80
2023/05/29 07:02:52;;;;;;;13.05;5.35;;;;;;;21.39;54.57;101420.00;5091639;28;20098;-80
2023/05/29 07:05:19;;;;;;;21.38;6.20;;;;;;;21.98;53.36;101425.16;5083949;28;20694;-80
2023/05/29 07:07:45;;;;;;;15.32;5.47;;;;;;;22.95;51.90;101423.16;5084907;28;20569;-79
2023/05/29 07:10:13;;;;;;;13.35;5.10;;;;;;;22.56;51.89;101424.25;5085865;28;20151;-80
2023/05/29 07:12:40;;;;;;;12.55;5.43;;;;;;;22.38;52.86;101419.63;5076933;28;20471;-81
2023/05/29 07:15:07;;;;;;;12.35;5.25;;;;;;;21.96;52.62;101421.06;5077405;28;20048;-78
2023/05/29 07:17:34;;;;;;;9.82;4.72;;;;;;;21.86;52.77;101418.84;5082310;28;21377;-79
2023/05/29 07:20:01;;;;;;;12.38;5.07;;;;;;;20.92;54.92;101418.38;5084972;28;20044;-80
2023/05/29 07:22:27;;;;;;;15.13;5.68;;;;;;;20.93;55.33;101422.69;5085991;28;20070;-79
2023/05/29 07:24:54;;;;;;;13.55;5.78;;;;;;;21.23;54.95;101421.28;5082842;28;20075;-78
2023/05/29 07:27:22;;;;;;;12.20;5.38;;;;;;;21.46;54.56;101421.63;5084683;28;20076;-79
2023/05/29 07:29:48;;;;;;;12.73;5.57;;;;;;;21.60;54.67;101429.59;5082935;28;20094;-78
2023/05/29 07:32:16;;;;;;;17.30;5.85;;;;;;;20.98;55.33;101422.91;5092657;28;20052;-78
2023/05/29 07:34:43;;;;;;;17.40;6.20;;;;;;;20.15;57.06;101425.00;5085782;28;20072;-79
2023/05/29 07:37:10;;;;;;;14.27;5.90;;;;;;;20.80;56.67;101419.00;5085018;28;20086;-80
2023/05/29 07:39:37;;;;;;;10.75;5.53;;;;;;;21.26;55.81;101431.53;5085183;28;20098;-79
2023/05/29 07:42:06;;;;;;;10.05;5.35;;;;;;;22.70;53.85;101434.59;5082228;28;20086;-80
2023/05/29 07:44:34;;;;;;;12.05;5.72;;;;;;;22.52;52.47;101424.66;5080332;28;20085;-79
2023/05/29 07:47:00;;;;;;;13.82;5.68;;;;;;;20.96;55.17;101425.75;5083403;28;20063;-79
2023/05/29 07:49:27;;;;;;;14.48;5.35;;;;;;;21.60;54.61;101426.94;5081627;28;20177;-80
2023/05/29 07:51:53;;;;;;;13.00;5.65;;;;;;;22.47;53.32;101423.69;5080386;28;20052;-80
2023/05/29 07:54:21;;;;;;;13.27;5.28;;;;;;;22.05;53.67;101435.81;5081661;28;20126;-80
2023/05/29 07:56:48;;;;;;;10.55;5.35;;;;;;;21.67;54.36;101435.72;5076297;28;20067;-78
2023/05/29 07:59:15;;;;;;;19.40;5.90;;;;;;;21.33;54.80;101442.94;5082970;28;20496;-79
2023/05/29 08:01:44;;;;;;;12.15;5.63;;;;;;;21.85;54.68;101446.50;5087213;28;20075;-80
2023/05/29 08:04:10;;;;;;;12.05;5.97;;;;;;;20.09;56.42;101449.72;5079560;28;20048;-79
2023/05/29 08:06:37;;;;;;;16.38;5.68;;;;;;;20.56;57.18;101451.50;5079794;28;20454;-78
2023/05/29 08:09:04;;;;;;;13.40;6.07;;;;;;;20.75;57.05;101450.72;5080691;28;20064;-79
2023/05/29 08:11:31;;;;;;;11.85;5.68;;;;;;;21.15;56.14;101443.56;5082205;28;20044;-79
2023/05/29 08:13:59;;;;;;;15.10;5.30;;;;;;;21.64;55.15;101449.47;5081741;28;20083;-79
2023/05/29 08:16:27;;;;;;;16.92;5.97;;;;;;;21.86;54.95;101458.81;5076533;28;20083;-79
2023/05/29 08:18:55;;;;;;;16.73;5.97;;;;;;;22.29;54.10;101461.72;5075875;28;20048;-78
2023/05/29 08:21:22;;;;;;;14.55;5.78;;;;;;;22.37;53.50;101450.81;5077160;28;20052;-77
2023/05/29 08:23:49;;;;;;;11.40;4.88;;;;;;;22.66;52.99;101453.94;5071667;28;20128;-79
2023/05/29 08:26:15;;;;;;;15.60;5.38;;;;;;;23.12;52.72;101459.75;5078186;28;20063;-79
2023/05/29 08:28:42;;;;;;;15.95;5.95;;;;;;;22.20;53.62;101446.22;5077646;28;20143;-79
2023/05/29 08:31:09;;;;;;;10.60;4.80;;;;;;;22.11;53.70;101446.44;5080209;28;20523;-78
2023/05/29 08:33:36;;;;;;;14.98;5.20;;;;;;;22.62;52.97;101448.22;5078851;28;20068;-76
2023/05/29 08:36:05;;;;;;;11.10;5.03;;;;;;;22.62;53.01;101442.06;5079236;28;20052;-77
2023/05/29 08:38:31;;;;;;;12.68;5.78;;;;;;;21.28;54.88;101437.44;5079498;28;20113;-78
2023/05/29 08:40:58;;;;;;;13.98;5.50;;;;;;;21.29;54.79;101431.06;5085110;28;20056;-77
2023/05/29 08:43:35;;;;;;;14.02;5.13;;;;;;;21.46;55.56;101452.75;5073296;28;20048;-76
2023/05/29 08:46:03;;;;;;;14.63;5.40;;;;;;;21.56;54.66;101439.84;5077723;28;20052;-77
2023/05/29 08:54:37;;;;;;;11.82;5.40;;;;;;;21.60;55.21;101441.06;4945874;29;20130;-77
2023/05/29 08:57:08;;;;;;;11.10;4.80;;;;;;;22.52;54.01;101443.34;5024029;28;20024;-75
2023/05/29 08:59:49;;;;;;;12.80;5.50;;;;;;;21.64;55.11;101457.44;5076891;28;20112;-79
2023/05/29 09:02:16;;;;;;;14.18;6.03;;;;;;;20.23;58.32;101451.41;5089383;28;20052;-78
2023/05/29 09:04:57;;;;;;;12.88;5.68;;;;;;;21.45;56.80;101445.81;5079153;28;20091;-77
2023/05/29 09:07:43;;;;;;;11.63;5.20;;;;;;;22.04;54.81;101451.00;5068225;28;20102;-77
2023/05/29 09:10:27;;;;;;;15.02;5.35;;;;;;;20.99;56.45;101440.50;5076594;28;20068;-78
2023/05/29 09:12:55;;;;;;;12.48;5.25;;;;;;;21.74;56.03;101445.31;5083416;28;20088;-79
2023/05/29 09:15:46;;;;;;;12.63;5.47;;;;;;;21.29;56.55;101436.41;5083679;28;20121;-79
2023/05/29 09:18:41;;;;;;;12.70;5.60;;;;;;;19.59;59.07;101450.91;5088816;28;20466;-78
2023/05/29 09:21:33;;;;;;;16.60;7.03;;;;;;;20.62;58.57;101440.06;5085520;28;20048;-79
2023/05/29 09:24:27;;;;;;;12.45;6.00;;;;;;;21.24;57.30;101443.41;5080905;28;20044;-79
2023/05/29 09:27:13;;;;;;;11.50;5.15;;;;;;;22.05;55.36;101451.81;5082770;28;20099;-81
2023/05/29 09:30:20;;;;;;;18.23;5.35;;;;;;;22.16;54.93;101448.47;5075468;28;20071;-79
2023/05/29 09:32:54;;;;;;;12.15;5.68;;;;;;;21.16;55.82;101428.41;5085054;28;20580;-81
2023/05/29 09:35:21;;;;;;;17.45;6.60;;;;;;;20.42;57.23;101442.69;5094678;28;20052;-80
2023/05/29 09:37:48;;;;;;;12.10;5.85;;;;;;;20.92;58.56;101445.00;5079610;28;20056;-78
2023/05/29 09:40:15;;;;;;;15.75;6.53;;;;;;;21.42;56.70;101452.38;5084856;28;20079;-78
2023/05/29 09:42:43;;;;;;;13.05;5.82;;;;;;;20.72;57.35;101445.81;5084833;28;20079;-79
2023/05/29 09:45:13;;;;;;;13.02;5.93;;;;;;;20.99;58.13;101457.28;5091842;28;20056;-79
2023/05/29 09:47:46;;;;;;;19.27;7.00;;;;;;;20.11;58.98;101459.13;5076363;28;20057;-80
2023/05/29 09:50:21;;;;;;;14.40;6.30;;;;;;;20.46;58.65;101451.06;5083412;28;20419;-77
2023/05/29 09:52:52;;;;;;;14.15;5.90;;;;;;;20.56;57.79;101448.03;5072557;28;20602;-79
2023/05/29 09:55:25;;;;;;;15.07;5.55;;;;;;;20.57;58.35;101449.66;5070396;28;20041;-80
2023/05/29 09:57:59;;;;;;;16.30;5.72;;;;;;;20.48;58.59;101441.88;5071852;28;20056;-80
2023/05/29 10:00:30;;;;;;;14.45;5.95;;;;;;;20.10;58.93;101456.66;5083401;28;20049;-81
2023/05/29 10:03:05;;;;;;;12.45;5.65;;;;;;;20.38;59.41;101448.59;5080876;28;20513;-79
2023/05/29 10:05:32;;;;;;;15.63;6.35;;;;;;;20.14;58.89;101445.44;5087142;28;20045;-79
2023/05/29 10:08:02;;;;;;;12.98;5.85;;;;;;;19.97;60.41;101456.59;5086935;28;20048;-79
2023/05/29 10:11:09;;;;;;;15.15;5.55;;;;;;;19.89;60.42;101447.78;5093887;28;20056;-80
2023/05/29 10:13:48;;;;;;;13.98;5.78;;;;;;;19.81;60.90;101463.09;5077965;28;20446;-78
2023/05/29 10:16:15;;;;;;;16.50;5.68;;;;;;;19.81;60.54;101449.81;5090320;28;20094;-78
2023/05/29 10:18:45;;;;;;;13.23;5.70;;;;;;;20.42;59.51;101440.03;5076122;28;20095;-79
2023/05/29 10:21:25;;;;;;;17.88;6.03;;;;;;;20.66;58.90;101425.34;5084859;28;20048;-80
2023/05/29 10:24:04;;;;;;;13.50;5.47;;;;;;;20.79;59.13;101444.00;5079338;28;20151;-80
2023/05/29 10:26:32;;;;;;;14.25;6.25;;;;;;;21.21;58.25;101444.63;5089167;28;20086;-80
2023/05/29 10:29:12;;;;;;;14.85;6.07;;;;;;;21.00;58.44;101447.47;5078381;28;20457;-84
2023/05/29 10:31:59;;;;;;;13.85;5.78;;;;;;;20.59;58.77;101447.63;5079272;28;20094;-80
2023/05/29 10:34:35;;;;;;;15.18;6.43;;;;;;;19.97;59.77;101451.28;5088972;28;20055;-81
2023/05/29 10:37:15;;;;;;;12.13;5.75;;;;;;;20.08;60.48;101456.84;5080726;28;20421;-81
2023/05/29 10:39:42;;;;;;;11.05;5.30;;;;;;;19.72;60.16;101448.31;5087419;28;20051;-81
2023/05/29 10:42:45;;;;;;;13.85;6.90;;;;;;;19.73;60.68;101444.66;5090220;28;20044;-81
2023/05/29 10:45:53;;;;;;;14.77;6.95;;;;;;;20.02;60.51;101420.47;5082027;28;20048;-78
2023/05/29 10:48:41;;;;;;;13.45;6.05;;;;;;;20.69;58.82;101432.94;4994135;28;20440;-81
2023/05/29 10:51:10;;;;;;;13.82;5.78;;;;;;;20.49;59.08;101445.34;5015372;28;20077;-81
2023/05/29 10:53:40;;;;;;;14.98;6.55;;;;;;;20.50;59.41;101441.69;5091927;28;20115;-80
2023/05/29 10:56:10;;;;;;;16.55;5.95;;;;;;;20.37;59.22;101439.78;5086570;28;20041;-78
2023/05/29 10:58:38;;;;;;;11.23;5.72;;;;;;;20.31;59.44;101443.25;5083889;28;20059;-79
2023/05/29 11:01:05;;;;;;;16.17;5.90;;;;;;;20.61;59.65;101442.94;5100393;28;20059;-79
2023/05/29 11:03:32;;;;;;;11.63;5.80;;;;;;;20.88;59.19;101445.41;5099615;28;20040;-79
2023/05/29 11:06:02;;;;;;;11.88;5.55;;;;;;;21.25;58.55;101435.22;5099846;28;20075;-77
2023/05/29 11:08:34;;;;;;;15.85;5.80;;;;;;;21.42;58.09;101436.38;5080168;28;20127;-77
2023/05/29 11:11:01;;;;;;;17.20;6.68;;;;;;;21.32;57.61;101416.53;5093090;28;20483;-78
2023/05/29 11:13:34;;;;;;;18.10;6.68;;;;;;;21.57;57.48;101422.03;5097654;28;20115;-79
2023/05/29 11:16:10;;;;;;;;;;;;;;;22.03;56.12;101417.38;5097611;28;20048;-79
2023/05/29 11:18:46;;;;;;;13.07;6.00;;;;;;;21.81;56.20;101427.47;5095365;28;20137;-79
2023/05/29 11:21:34;;;;;;;13.25;6.50;;;;;;;20.81;57.91;101415.31;5099521;28;20125;-80
2023/05/29 11:24:04;;;;;;;14.88;5.75;;;;;;;21.61;57.86;101423.25;5104926;28;20086;-78
2023/05/29 11:26:32;;;;;;;15.77;5.72;;;;;;;20.93;58.02;101417.38;5105880;28;20044;-79
2023/05/29 11:29:13;;;;;;;14.52;5.82;;;;;;;21.51;57.75;101413.03;5084002;28;20078;-79
2023/05/29 11:31:41;;;;;;;15.80;6.88;;;;;;;22.01;56.60;101415.91;5093860;28;20206;-78
2023/05/29 11:34:15;;;;;;;16.13;5.63;;;;;;;22.16;56.73;101419.97;5078926;28;20083;-76
2023/05/29 11:36:48;;;;;;;12.15;5.93;;;;;;;21.87;56.63;101407.16;5069443;28;20048;-75